Time;durP1;ratioP1;P1;durP2;ratioP2;P2;SDS_P1;SDS_P2;PMS_P1;PMS_P2;Temp;Humidity;BMP_temperature;BMP_pressure;BME280_temperature;BME280_humidity;BME280_pressure;Samples;Min_cycle;Max_cycle;Signal;HPM_P1;HPM_P2
2021/10/24 04:01:38;;;;;;;7.13;5.90;;;5.00;99.90;;;;;;5377501;23;20650;-69
2021/10/24 04:04:05;;;;;;;8.52;6.90;;;5.00;99.90;;;;;;4952285;28;20217;-69
2021/10/24 04:06:32;;;;;;;11.43;7.50;;;4.90;99.90;;;;;;4951176;28;20229;-68
2021/10/24 04:08:59;;;;;;;12.10;7.57;;;4.90;99.90;;;;;;4951798;28;20205;-68
2021/10/24 04:11:25;;;;;;;8.70;6.32;;;4.90;99.90;;;;;;4951404;28;20722;-68
2021/10/24 04:13:52;;;;;;;13.40;7.05;;;4.90;99.90;;;;;;4950300;28;20296;-70
2021/10/24 04:16:19;;;;;;;8.48;7.10;;;4.90;99.90;;;;;;4951136;28;20229;-68
2021/10/24 04:18:47;;;;;;;10.30;5.93;;;4.90;99.90;;;;;;4944556;28;20753;-69
2021/10/24 04:21:13;;;;;;;9.95;6.47;;;4.90;99.90;;;;;;4932807;29;20226;-70
2021/10/24 04:23:40;;;;;;;8.80;6.65;;;4.90;99.90;;;;;;4960260;23;20229;-70
2021/10/24 04:26:08;;;;;;;9.32;6.18;;;4.90;99.90;;;;;;4950785;29;20229;-69
2021/10/24 04:28:34;;;;;;;8.00;6.47;;;4.90;99.90;;;;;;4938330;29;20206;-71
2021/10/24 04:31:01;;;;;;;11.25;6.60;;;4.80;99.90;;;;;;4939852;28;20526;-70
2021/10/24 04:33:28;;;;;;;8.93;6.30;;;4.80;99.90;;;;;;4950649;29;20733;-70
2021/10/24 04:35:56;;;;;;;11.32;7.35;;;4.80;99.90;;;;;;4932644;29;20202;-71
2021/10/24 04:38:22;;;;;;;16.00;6.35;;;4.80;99.90;;;;;;4937734;28;20208;-70
2021/10/24 04:40:49;;;;;;;10.35;7.25;;;4.80;99.90;;;;;;4936772;29;20213;-70
2021/10/24 04:43:17;;;;;;;10.07;6.53;;;4.80;99.90;;;;;;4944515;29;20276;-71
2021/10/24 04:45:44;;;;;;;8.52;6.60;;;4.70;99.90;;;;;;4938945;29;20226;-70
2021/10/24 04:48:10;;;;;;;9.27;7.20;;;4.70;99.90;;;;;;4938548;29;20210;-70
2021/10/24 04:50:37;;;;;;;10.25;6.70;;;4.70;99.90;;;;;;4941284;29;20219;-71
2021/10/24 04:53:09;;;;;;;8.10;6.68;;;4.70;99.90;;;;;;4946112;29;20221;-70
2021/10/24 04:55:36;;;;;;;13.05;7.10;;;4.70;99.90;;;;;;4954153;29;20217;-70
2021/10/24 04:58:03;;;;;;;9.57;6.70;;;4.70;99.90;;;;;;4953785;29;20272;-70
2021/10/24 05:00:30;;;;;;;9.85;6.60;;;4.70;99.90;;;;;;4945556;29;20310;-70
2021/10/24 05:02:59;;;;;;;11.38;6.25;;;4.70;99.90;;;;;;4935971;29;20222;-70
2021/10/24 05:05:26;;;;;;;10.57;7.40;;;4.70;99.90;;;;;;4939597;29;20585;-70
2021/10/24 05:07:53;;;;;;;7.80;6.63;;;4.70;99.90;;;;;;4954482;29;20205;-70
2021/10/24 05:10:21;;;;;;;8.70;6.93;;;4.60;99.90;;;;;;4951682;29;20288;-70
2021/10/24 05:12:48;;;;;;;7.80;6.53;;;4.60;99.90;;;;;;4935455;29;20226;-70
2021/10/24 05:15:15;;;;;;;7.75;6.93;;;4.60;99.90;;;;;;4949212;29;20202;-70
2021/10/24 05:17:41;;;;;;;6.82;6.05;;;4.60;99.90;;;;;;4948026;29;20527;-72
2021/10/24 05:20:09;;;;;;;19.73;7.25;;;4.60;99.90;;;;;;4939754;29;20659;-69
2021/10/24 05:22:36;;;;;;;12.45;6.60;;;4.60;99.90;;;;;;4954540;28;20299;-71
2021/10/24 05:25:02;;;;;;;9.82;7.63;;;4.60;99.90;;;;;;4954147;29;20256;-71
2021/10/24 05:27:30;;;;;;;8.93;6.97;;;4.60;99.90;;;;;;4947666;29;20201;-71
2021/10/24 05:29:57;;;;;;;9.35;6.80;;;4.50;99.90;;;;;;4940788;29;20218;-71
2021/10/24 05:32:24;;;;;;;7.63;6.75;;;4.50;99.90;;;;;;4936523;29;20229;-71
2021/10/24 05:34:50;;;;;;;16.50;6.88;;;4.50;99.90;;;;;;4942600;29;20216;-71
2021/10/24 05:37:17;;;;;;;10.68;6.68;;;4.50;99.90;;;;;;4953773;29;20213;-71
2021/10/24 05:39:43;;;;;;;8.25;7.07;;;4.50;99.90;;;;;;4948118;29;20206;-69
2021/10/24 05:42:10;;;;;;;8.00;7.20;;;4.50;99.90;;;;;;4934582;29;20233;-70
2021/10/24 05:44:38;;;;;;;9.70;7.15;;;4.50;99.90;;;;;;4938969;29;20236;-69
2021/10/24 05:47:05;;;;;;;10.05;6.05;;;4.50;99.90;;;;;;4949129;29;20232;-70
2021/10/24 05:49:32;;;;;;;14.55;7.30;;;4.50;99.90;;;;;;4949783;28;20538;-72
2021/10/24 05:51:58;;;;;;;8.85;7.03;;;4.50;99.90;;;;;;4946940;29;20208;-69
2021/10/24 05:54:25;;;;;;;9.45;6.85;;;4.50;99.90;;;;;;4941940;29;20210;-68
2021/10/24 05:56:52;;;;;;;13.85;7.07;;;4.50;99.90;;;;;;4942574;29;20210;-69
2021/10/24 05:59:19;;;;;;;12.10;9.18;;;4.50;99.90;;;;;;4933847;29;20205;-68
2021/10/24 06:01:47;;;;;;;23.85;15.23;;;4.50;99.90;;;;;;4942576;29;20672;-68
2021/10/24 06:04:13;;;;;;;26.55;18.00;;;4.50;99.90;;;;;;4946432;29;20208;-68
2021/10/24 06:06:40;;;;;;;18.95;13.82;;;4.50;99.90;;;;;;4939083;29;20238;-70
2021/10/24 06:09:07;;;;;;;22.73;14.35;;;4.40;99.90;;;;;;4944190;29;20202;-69
2021/10/24 06:11:45;;;;;;;15.10;9.52;;;4.40;99.90;;;;;;4952405;28;20210;-69
2021/10/24 06:14:12;;;;;;;15.70;10.52;;;4.40;99.90;;;;;;4938108;29;20294;-68
2021/10/24 06:16:38;;;;;;;11.63;8.50;;;4.40;99.90;;;;;;4935468;29;20206;-70
2021/10/24 06:19:06;;;;;;;30.58;19.88;;;4.40;99.90;;;;;;4945993;29;20206;-69
2021/10/24 06:21:33;;;;;;;19.85;12.82;;;4.40;99.90;;;;;;4936867;29;20210;-70
2021/10/24 06:24:00;;;;;;;18.75;15.90;;;4.40;99.90;;;;;;4934431;29;20238;-69
2021/10/24 06:26:26;;;;;;;20.05;14.55;;;4.50;99.90;;;;;;4940150;29;20862;-69
2021/10/24 06:28:53;;;;;;;22.40;15.02;;;4.50;99.90;;;;;;4952518;29;20232;-70
2021/10/24 06:31:20;;;;;;;17.05;10.95;;;4.50;99.90;;;;;;4952446;29;20260;-69
2021/10/24 06:33:46;;;;;;;13.65;9.77;;;4.50;99.90;;;;;;4952821;29;20252;-69
2021/10/24 06:36:14;;;;;;;11.95;8.55;;;4.50;99.90;;;;;;4951077;29;20557;-70
2021/10/24 06:38:41;;;;;;;8.77;7.88;;;4.40;99.90;;;;;;4952563;29;20206;-71
2021/10/24 06:41:08;;;;;;;20.67;11.00;;;4.50;99.90;;;;;;4950022;29;20217;-70
2021/10/24 06:43:34;;;;;;;10.77;8.00;;;4.50;99.90;;;;;;4935187;29;20733;-70
2021/10/24 06:46:01;;;;;;;15.82;9.57;;;4.50;99.90;;;;;;4934723;29;20229;-70
2021/10/24 06:48:28;;;;;;;12.35;8.20;;;4.50;99.90;;;;;;4952417;29;20212;-70
2021/10/24 06:50:55;;;;;;;9.27;8.10;;;4.60;99.90;;;;;;4952482;29;20219;-69
2021/10/24 06:53:23;;;;;;;11.98;7.75;;;4.60;99.90;;;;;;4952399;29;20335;-70
2021/10/24 06:55:50;;;;;;;12.98;9.20;;;4.60;99.90;;;;;;4951012;29;20223;-70
2021/10/24 06:58:16;;;;;;;12.18;8.00;;;4.60;99.90;;;;;;4950854;29;20235;-70
2021/10/24 07:00:44;;;;;;;13.77;8.43;;;4.70;99.90;;;;;;4949973;28;20702;-69
2021/10/24 07:03:10;;;;;;;11.90;7.90;;;4.70;99.90;;;;;;4946335;29;20221;-70
2021/10/24 07:05:37;;;;;;;13.73;8.40;;;4.70;99.90;;;;;;4933815;29;20257;-69
2021/10/24 07:08:06;;;;;;;12.85;8.30;;;4.70;99.90;;;;;;4933735;29;20535;-70
2021/10/24 07:10:34;;;;;;;14.88;9.73;;;4.80;99.90;;;;;;4937602;29;20210;-70
2021/10/24 07:13:01;;;;;;;12.25;9.15;;;4.80;99.90;;;;;;4932855;29;20710;-69
2021/10/24 07:15:27;;;;;;;12.25;8.55;;;4.90;99.90;;;;;;4935700;29;20241;-70
2021/10/24 07:17:54;;;;;;;14.38;12.43;;;5.00;99.90;;;;;;4933039;29;20202;-70
2021/10/24 07:20:21;;;;;;;18.92;15.18;;;5.10;99.90;;;;;;4938186;29;20297;-70
2021/10/24 07:22:49;;;;;;;14.93;11.80;;;5.30;99.90;;;;;;4945761;29;20285;-69
2021/10/24 07:25:16;;;;;;;10.93;8.20;;;5.40;99.90;;;;;;4934949;29;20206;-69
2021/10/24 07:27:44;;;;;;;9.30;8.00;;;5.60;99.90;;;;;;4944663;29;20245;-70
2021/10/24 07:30:12;;;;;;;8.05;7.25;;;5.80;99.90;;;;;;4936627;29;20217;-70
2021/10/24 07:32:39;;;;;;;8.77;7.97;;;5.80;99.90;;;;;;4934028;29;20237;-70
2021/10/24 07:35:07;;;;;;;9.63;7.50;;;5.80;99.90;;;;;;4952403;29;20303;-70
2021/10/24 07:37:34;;;;;;;13.20;7.25;;;5.80;99.90;;;;;;4951685;29;20216;-72
2021/10/24 07:40:01;;;;;;;10.43;6.88;;;5.80;99.90;;;;;;4933458;29;20206;-69
2021/10/24 07:42:28;;;;;;;7.68;7.00;;;5.80;99.90;;;;;;4948338;29;20225;-70
2021/10/24 07:44:56;;;;;;;10.10;8.82;;;5.80;99.90;;;;;;4950948;29;20216;-69
2021/10/24 07:47:23;;;;;;;8.15;7.45;;;5.80;99.90;;;;;;4945509;29;20229;-69
2021/10/24 07:49:50;;;;;;;7.78;6.07;;;5.90;99.90;;;;;;4949491;28;20201;-70
2021/10/24 07:52:17;;;;;;;9.38;6.22;;;5.90;99.90;;;;;;4951738;28;20217;-70
2021/10/24 07:54:44;;;;;;;7.53;6.82;;;5.90;99.90;;;;;;4935333;29;20236;-71
2021/10/24 07:57:11;;;;;;;10.93;7.10;;;5.90;99.90;;;;;;4933091;29;20636;-70
2021/10/24 07:59:38;;;;;;;13.38;8.80;;;6.00;99.90;;;;;;4947451;29;20214;-71
2021/10/24 08:02:07;;;;;;;9.07;7.03;;;6.10;99.90;;;;;;4944224;29;20234;-73
2021/10/24 08:04:34;;;;;;;10.02;6.13;;;6.10;99.90;;;;;;4947402;29;20201;-70
2021/10/24 08:07:03;;;;;;;10.38;6.38;;;6.10;99.90;;;;;;4951102;29;20256;-70
2021/10/24 08:09:30;;;;;;;12.63;6.43;;;6.10;99.90;;;;;;4951755;29;20311;-70
2021/10/24 08:11:57;;;;;;;19.55;5.97;;;6.20;99.90;;;;;;4946563;29;20210;-70
2021/10/24 08:14:23;;;;;;;7.63;6.78;;;6.20;99.90;;;;;;4935910;29;20237;-70
2021/10/24 08:16:51;;;;;;;9.85;5.82;;;6.30;99.90;;;;;;4938324;29;20247;-70
2021/10/24 08:19:19;;;;;;;6.47;5.93;;;6.30;99.90;;;;;;4936203;29;20304;-71
2021/10/24 08:21:47;;;;;;;7.68;6.32;;;6.40;99.90;;;;;;4946742;28;20201;-70
2021/10/24 08:24:14;;;;;;;7.70;5.72;;;6.50;99.90;;;;;;4952149;29;20333;-71
2021/10/24 08:26:41;;;;;;;9.18;8.30;;;6.50;99.90;;;;;;4954464;29;20225;-71
2021/10/24 08:29:07;;;;;;;11.38;5.90;;;6.60;99.90;;;;;;4936197;29;20221;-69
2021/10/24 08:31:34;;;;;;;6.53;5.85;;;6.70;99.90;;;;;;4939386;29;20572;-70
2021/10/24 08:34:01;;;;;;;10.15;7.07;;;6.80;99.90;;;;;;4954233;29;20236;-70
2021/10/24 08:36:30;;;;;;;7.88;5.95;;;6.80;99.90;;;;;;4953234;29;20210;-69
2021/10/24 08:38:58;;;;;;;6.53;5.93;;;6.90;99.90;;;;;;4954145;29;20640;-70
2021/10/24 08:41:28;;;;;;;6.95;5.38;;;7.00;99.90;;;;;;4938527;29;20280;-70
2021/10/24 08:43:56;;;;;;;7.32;4.57;;;7.00;99.90;;;;;;4935750;29;20232;-70
2021/10/24 08:46:23;;;;;;;7.43;5.18;;;7.10;99.90;;;;;;4950829;29;20225;-71
2021/10/24 08:48:51;;;;;;;3.95;3.65;;;7.20;99.90;;;;;;4952204;29;20209;-70
2021/10/24 08:51:19;;;;;;;5.60;5.10;;;7.30;99.90;;;;;;4943375;29;20305;-72
2021/10/24 08:53:48;;;;;;;5.15;4.78;;;7.40;99.90;;;;;;4936300;29;20602;-72
2021/10/24 08:56:17;;;;;;;9.85;7.13;;;7.50;99.90;;;;;;4936939;29;20210;-72
2021/10/24 08:58:45;;;;;;;6.10;4.70;;;7.60;99.90;;;;;;4939615;28;20608;-72
2021/10/24 09:01:12;;;;;;;5.32;4.75;;;7.70;99.90;;;;;;4953143;29;20638;-72
2021/10/24 09:03:39;;;;;;;5.55;5.03;;;7.90;99.90;;;;;;4954848;29;20255;-72
2021/10/24 09:06:07;;;;;;;5.05;4.55;;;8.00;99.90;;;;;;4948636;29;20212;-72
2021/10/24 09:08:37;;;;;;;14.02;9.70;;;8.10;99.90;;;;;;4953660;29;20208;-72
2021/10/24 09:11:05;;;;;;;15.02;7.15;;;8.20;99.90;;;;;;4937984;29;20236;-72
2021/10/24 09:13:34;;;;;;;7.47;4.03;;;8.20;99.90;;;;;;4937982;29;20225;-70
2021/10/24 09:16:04;;;;;;;4.20;4.00;;;8.30;99.90;;;;;;4936084;29;20218;-70
2021/10/24 09:18:33;;;;;;;10.43;7.75;;;8.40;99.90;;;;;;4937095;29;20233;-71
2021/10/24 09:21:19;;;;;;;5.70;5.20;;;8.40;99.90;;;;;;4935262;29;20217;-71
2021/10/24 09:23:47;;;;;;;4.13;3.75;;;8.50;99.90;;;;;;4938826;29;20233;-71
2021/10/24 09:26:22;;;;;;;3.40;3.20;;;8.60;99.90;;;;;;4941816;29;20224;-73
2021/10/24 09:29:00;;;;;;;5.78;4.18;;;8.70;99.90;;;;;;4938387;29;20197;-75
2021/10/24 09:31:28;;;;;;;9.57;6.95;;;8.80;99.90;;;;;;4935369;29;20739;-70
2021/10/24 09:33:56;;;;;;;9.00;4.80;;;9.00;99.90;;;;;;4944630;29;20237;-69
2021/10/24 09:36:26;;;;;;;4.40;4.10;;;9.10;99.90;;;;;;4935698;29;20208;-69
2021/10/24 09:39:08;;;;;;;3.70;3.40;;;9.10;99.90;;;;;;4948973;29;20220;-70
2021/10/24 09:41:36;;;;;;;6.22;3.15;;;9.20;99.90;;;;;;4950509;29;20209;-70
2021/10/24 09:44:14;;;;;;;6.82;5.18;;;9.30;99.90;;;;;;4945664;29;20228;-70
2021/10/24 09:46:56;;;;;;;3.78;3.35;;;9.30;99.90;;;;;;4944220;29;20225;-70
2021/10/24 09:49:23;;;;;;;3.70;3.35;;;9.40;99.90;;;;;;4948685;28;20673;-71
2021/10/24 09:51:50;;;;;;;8.80;7.22;;;9.40;99.90;;;;;;4949509;28;20309;-70
2021/10/24 09:54:18;;;;;;;3.60;3.30;;;9.50;99.90;;;;;;4952861;29;20280;-70
2021/10/24 09:56:48;;;;;;;5.03;4.53;;;9.60;99.90;;;;;;4947811;29;20202;-71
2021/10/24 09:59:18;;;;;;;3.22;3.00;;;9.60;99.90;;;;;;4953076;29;20308;-69
2021/10/24 10:01:49;;;;;;;2.42;2.33;;;9.70;99.90;;;;;;4945408;29;20225;-71
2021/10/24 10:04:17;;;;;;;5.22;3.75;;;9.90;99.90;;;;;;4934335;29;20607;-70
2021/10/24 10:06:45;;;;;;;14.90;10.27;;;10.00;99.90;;;;;;4939466;29;20229;-71
2021/10/24 10:09:13;;;;;;;4.65;3.00;;;10.00;99.90;;;;;;4949999;29;20208;-71
2021/10/24 10:11:47;;;;;;;6.47;5.85;;;10.10;99.90;;;;;;4943452;29;20292;-72
2021/10/24 10:14:20;;;;;;;7.13;2.72;;;10.20;99.90;;;;;;4949846;29;20232;-72
2021/10/24 10:16:52;;;;;;;5.25;3.85;;;10.30;99.90;;;;;;4935084;29;20549;-72
2021/10/24 10:19:30;;;;;;;4.60;3.60;;;10.40;99.90;;;;;;4940028;29;20198;-71
2021/10/24 10:21:57;;;;;;;6.93;6.18;;;10.40;99.90;;;;;;4939909;28;20229;-71
2021/10/24 10:24:44;;;;;;;4.05;3.67;;;10.50;99.90;;;;;;4963934;23;20735;-71
2021/10/24 10:27:39;;;;;;;4.78;4.40;;;10.50;99.90;;;;;;4939393;29;20705;-72
2021/10/24 10:30:11;;;;;;;2.67;2.45;;;10.50;99.90;;;;;;4942195;29;20205;-71
2021/10/24 10:32:39;;;;;;;5.95;3.03;;;10.60;99.90;;;;;;4953552;29;20215;-71
2021/10/24 10:35:09;;;;;;;5.03;3.05;;;10.60;99.90;;;;;;4951263;28;20596;-72
2021/10/24 10:37:52;;;;;;;4.45;4.05;;;10.70;99.90;;;;;;4945961;29;20273;-72
2021/10/24 10:40:24;;;;;;;3.55;3.00;;;10.70;99.90;;;;;;4942962;28;20655;-74
2021/10/24 10:42:56;;;;;;;4.47;4.00;;;10.80;99.90;;;;;;4934588;29;20206;-72
2021/10/24 10:45:38;;;;;;;2.35;2.15;;;11.00;99.90;;;;;;4936035;29;20248;-73
2021/10/24 10:48:06;;;;;;;3.42;3.20;;;11.10;99.90;;;;;;4952842;29;20599;-71
2021/10/24 10:50:45;;;;;;;5.70;3.78;;;11.10;99.90;;;;;;4942390;29;20217;-72
2021/10/24 10:53:40;;;;;;;2.85;2.75;;;11.10;99.90;;;;;;4933862;29;20256;-72
2021/10/24 10:56:19;;;;;;;5.70;3.83;;;11.10;99.90;;;;;;4933458;29;20237;-73
2021/10/24 10:58:47;;;;;;;5.70;3.45;;;11.20;99.90;;;;;;4933765;29;20257;-72
2021/10/24 11:01:21;;;;;;;4.75;4.18;;;11.20;99.90;;;;;;4933455;29;20222;-71
2021/10/24 11:03:49;;;;;;;3.03;2.72;;;11.20;99.90;;;;;;4934196;29;20270;-72
2021/10/24 11:06:51;;;;;;;7.97;3.75;;;11.30;99.90;;;;;;4929111;29;20700;-71
2021/10/24 11:09:37;;;;;;;2.63;2.53;;;11.30;99.90;;;;;;4913191;29;20262;-71
2021/10/24 11:12:07;;;;;;;2.80;2.70;;;11.30;99.90;;;;;;4933332;29;20202;-71
2021/10/24 11:14:45;;;;;;;3.38;2.60;;;11.40;99.90;;;;;;4933442;29;20579;-71
2021/10/24 11:17:35;;;;;;;16.10;13.63;;;11.40;99.90;;;;;;4933815;29;20305;-72
2021/10/24 11:20:26;;;;;;;13.52;8.48;;;11.50;99.90;;;;;;4933522;29;20257;-72
2021/10/24 11:23:01;;;;;;;3.15;2.55;;;11.50;99.90;;;;;;4929134;29;20211;-71
2021/10/24 11:25:31;;;;;;;4.45;4.05;;;11.60;99.90;;;;;;4914485;29;20593;-73
2021/10/24 11:28:03;;;;;;;9.77;4.82;;;11.60;99.90;;;;;;4913869;29;20657;-73
2021/10/24 11:30:30;;;;;;;5.78;5.18;;;11.60;99.90;;;;;;4914561;29;20319;-73
2021/10/24 11:33:00;;;;;;;6.60;4.40;;;11.60;99.90;;;;;;4914668;29;20210;-72
2021/10/24 11:35:27;;;;;;;4.60;4.15;;;11.70;99.90;;;;;;4914965;29;20230;-72
2021/10/24 11:37:56;;;;;;;2.80;2.60;;;11.70;99.90;;;;;;4925558;29;20202;-72
2021/10/24 11:40:25;;;;;;;7.88;5.18;;;11.70;99.90;;;;;;4937488;28;20218;-72
2021/10/24 11:43:05;;;;;;;6.40;4.57;;;11.70;99.90;;;;;;4935790;29;20214;-73
2021/10/24 11:45:34;;;;;;;6.55;2.63;;;11.70;99.90;;;;;;4935233;29;20229;-72
2021/10/24 11:48:05;;;;;;;3.22;3.03;;;11.80;99.90;;;;;;4933763;29;20234;-73
2021/10/24 11:50:52;;;;;;;3.53;2.38;;;11.80;99.90;;;;;;4937374;29;20216;-72
2021/10/24 11:53:28;;;;;;;5.75;5.20;;;11.80;99.90;;;;;;4928993;29;20221;-74
2021/10/24 11:55:57;;;;;;;2.53;2.42;;;11.80;99.90;;;;;;4914638;29;20213;-71
2021/10/24 11:58:50;;;;;;;8.43;6.28;;;11.80;99.90;;;;;;4913937;29;20232;-71
2021/10/24 12:01:18;;;;;;;5.20;4.60;;;11.90;99.90;;;;;;4913816;29;20210;-72
2021/10/24 12:03:56;;;;;;;3.63;3.05;;;11.90;99.90;;;;;;4914140;29;20233;-72
2021/10/24 12:06:48;;;;;;;2.75;2.53;;;12.00;99.90;;;;;;4914061;29;20397;-71
2021/10/24 12:09:24;;;;;;;5.53;4.25;;;12.00;99.90;;;;;;4913591;29;20234;-74
2021/10/24 12:11:51;;;;;;;2.10;2.00;;;12.00;99.90;;;;;;4927265;29;20904;-73
2021/10/24 12:14:18;;;;;;;3.85;2.88;;;12.10;99.90;;;;;;4913766;29;20235;-72
2021/10/24 12:16:46;;;;;;;3.70;2.85;;;12.10;99.90;;;;;;4914083;29;20206;-72
2021/10/24 12:19:26;;;;;;;2.00;1.90;;;12.20;99.90;;;;;;4913753;29;20270;-71
2021/10/24 12:22:05;;;;;;;3.97;1.63;;;12.20;99.90;;;;;;4927671;29;20205;-72
2021/10/24 12:24:42;;;;;;;3.53;1.63;;;12.20;99.90;;;;;;4933175;29;20733;-72
2021/10/24 12:27:12;;;;;;;4.68;3.50;;;12.30;99.90;;;;;;4931346;29;20729;-74
2021/10/24 12:29:39;;;;;;;6.07;2.05;;;12.30;99.90;;;;;;4916013;29;20214;-72
2021/10/24 12:32:12;;;;;;;4.32;3.92;;;12.30;99.90;;;;;;4913815;29;20206;-73
2021/10/24 12:34:57;;;;;;;7.00;2.10;;;12.30;99.90;;;;;;4913688;29;20274;-72
2021/10/24 12:37:25;;;;;;;3.13;2.92;;;12.30;99.90;;;;;;4913787;29;20207;-72
2021/10/24 12:40:23;;;;;;;3.03;2.80;;;12.30;99.90;;;;;;4913266;29;20210;-73
2021/10/24 12:43:11;;;;;;;5.55;4.93;;;12.30;99.90;;;;;;4921105;29;20226;-73
2021/10/24 12:45:49;;;;;;;6.72;4.47;;;12.30;99.90;;;;;;4916505;29;20341;-72
2021/10/24 12:48:17;;;;;;;4.45;4.05;;;12.30;99.90;;;;;;4938305;29;20253;-71
2021/10/24 12:50:46;;;;;;;4.03;3.53;;;12.30;99.90;;;;;;4929276;29;20214;-72
2021/10/24 12:53:15;;;;;;;2.55;2.45;;;12.30;99.90;;;;;;4938307;29;20205;-72
2021/10/24 12:55:58;;;;;;;3.08;2.00;;;12.30;99.90;;;;;;4917067;28;20262;-73
2021/10/24 12:58:25;;;;;;;3.20;1.55;;;12.30;99.90;;;;;;4916443;29;20222;-74
2021/10/24 13:00:52;;;;;;;4.15;2.20;;;12.40;99.90;;;;;;4934383;29;20210;-72
2021/10/24 13:03:19;;;;;;;1.08;1.08;;;12.40;99.90;;;;;;4940742;29;20267;-72
2021/10/24 13:05:47;;;;;;;2.95;2.00;;;12.50;99.90;;;;;;4929157;29;20199;-73
2021/10/24 13:08:15;;;;;;;1.58;1.58;;;12.50;99.90;;;;;;4920896;29;20236;-72
2021/10/24 13:10:42;;;;;;;3.70;2.85;;;12.50;99.90;;;;;;4929223;29;20585;-72
2021/10/24 13:13:09;;;;;;;3.50;2.90;;;12.50;99.90;;;;;;4926848;29;20237;-73
2021/10/24 13:15:36;;;;;;;7.72;2.58;;;12.50;99.90;;;;;;4916571;29;20227;-70
2021/10/24 13:18:03;;;;;;;2.20;1.65;;;12.50;99.90;;;;;;4916792;29;20203;-71
2021/10/24 13:20:32;;;;;;;11.50;10.10;;;12.50;99.90;;;;;;4916655;29;20213;-72
2021/10/24 13:23:04;;;;;;;8.20;5.38;;;12.50;99.90;;;;;;4934713;29;20206;-72
2021/10/24 13:25:31;;;;;;;5.55;4.65;;;12.50;99.90;;;;;;4927796;29;20236;-72
2021/10/24 13:27:58;;;;;;;3.78;2.78;;;12.50;99.90;;;;;;4938787;29;20233;-72
2021/10/24 13:30:28;;;;;;;3.47;2.22;;;12.50;99.90;;;;;;4935096;29;20270;-73
2021/10/24 13:32:55;;;;;;;1.10;1.10;;;12.50;99.90;;;;;;4916423;29;20211;-72
2021/10/24 13:35:24;;;;;;;3.13;2.80;;;12.60;99.90;;;;;;4919082;29;20334;-72
2021/10/24 13:37:51;;;;;;;2.22;2.13;;;12.60;99.90;;;;;;4932211;29;20206;-72
2021/10/24 13:40:19;;;;;;;5.03;4.45;;;12.50;99.90;;;;;;4916275;29;20203;-72
2021/10/24 13:42:46;;;;;;;4.40;3.80;;;12.60;99.90;;;;;;4917300;29;20211;-72
2021/10/24 13:45:13;;;;;;;2.78;1.90;;;12.50;99.90;;;;;;4930415;29;20233;-71
2021/10/24 13:47:40;;;;;;;2.28;2.13;;;12.50;99.90;;;;;;4928433;29;20254;-71
2021/10/24 13:50:08;;;;;;;4.70;4.30;;;12.50;99.90;;;;;;4925057;29;20324;-70
2021/10/24 13:52:37;;;;;;;5.72;2.88;;;12.50;99.90;;;;;;4918612;29;20221;-70
2021/10/24 13:55:04;;;;;;;2.92;1.90;;;12.50;99.90;;;;;;4929054;29;20250;-69
2021/10/24 13:57:32;;;;;;;1.77;1.67;;;12.50;99.90;;;;;;4932322;29;20586;-70
2021/10/24 13:59:59;;;;;;;4.70;4.30;;;12.50;99.90;;;;;;4916672;29;20795;-69
2021/10/24 14:02:27;;;;;;;2.50;2.40;;;12.50;99.90;;;;;;4935927;29;20233;-71
2021/10/24 14:04:54;;;;;;;4.75;3.03;;;12.50;99.90;;;;;;4924484;29;20235;-72
2021/10/24 14:07:21;;;;;;;2.00;1.90;;;12.50;99.90;;;;;;4926374;29;20305;-71
2021/10/24 14:09:50;;;;;;;1.67;1.20;;;12.50;99.90;;;;;;4935713;29;20481;-71
2021/10/24 14:12:17;;;;;;;2.85;2.40;;;12.50;99.90;;;;;;4920383;29;20198;-70
2021/10/24 14:14:45;;;;;;;2.25;2.15;;;12.50;99.90;;;;;;4934403;29;20330;-70
2021/10/24 14:17:12;;;;;;;2.42;1.50;;;12.50;99.90;;;;;;4917119;29;20213;-70
2021/10/24 14:19:39;;;;;;;2.55;2.20;;;12.50;99.90;;;;;;4916054;29;20219;-71
2021/10/24 14:22:06;;;;;;;1.73;1.73;;;12.50;99.90;;;;;;4927106;29;20248;-70
2021/10/24 14:24:33;;;;;;;2.30;2.20;;;12.50;99.90;;;;;;4915173;29;20498;-70
2021/10/24 14:27:00;;;;;;;2.97;1.57;;;12.50;99.90;;;;;;4915694;29;20203;-71
2021/10/24 14:29:27;;;;;;;2.08;0.93;;;12.40;99.90;;;;;;4914981;29;20581;-71
2021/10/24 14:31:57;;;;;;;1.73;1.63;;;12.40;99.90;;;;;;4933723;29;20216;-70
2021/10/24 14:34:24;;;;;;;1.75;1.70;;;12.40;99.90;;;;;;4930676;29;20300;-70
2021/10/24 14:36:51;;;;;;;1.60;1.50;;;12.40;99.90;;;;;;4918318;29;20217;-70
2021/10/24 14:39:18;;;;;;;1.70;1.48;;;12.40;99.90;;;;;;4920339;29;20313;-70
2021/10/24 14:41:44;;;;;;;1.90;1.60;;;12.30;99.90;;;;;;4933758;29;20584;-71
2021/10/24 14:44:11;;;;;;;2.13;1.92;;;12.30;99.90;;;;;;4929278;29;20600;-70
2021/10/24 14:46:38;;;;;;;2.00;1.85;;;12.30;99.90;;;;;;4915108;29;20938;-70
2021/10/24 14:49:06;;;;;;;2.10;2.00;;;12.20;99.90;;;;;;4915657;29;20223;-70
2021/10/24 14:51:33;;;;;;;1.65;1.50;;;12.20;99.90;;;;;;4915102;29;20219;-70
2021/10/24 14:53:59;;;;;;;2.92;2.75;;;12.20;99.90;;;;;;4915713;29;20787;-71
2021/10/24 14:56:26;;;;;;;1.98;1.95;;;12.10;99.90;;;;;;4933208;29;20743;-70
2021/10/24 14:58:53;;;;;;;2.15;2.00;;;12.10;99.90;;;;;;4920915;29;20539;-72
2021/10/24 15:01:19;;;;;;;2.50;1.88;;;12.00;99.90;;;;;;4916215;29;20676;-70
2021/10/24 15:03:46;;;;;;;4.97;1.90;;;12.00;99.90;;;;;;4920767;29;20550;-70
2021/10/24 15:06:14;;;;;;;2.97;2.72;;;12.00;99.90;;;;;;4930247;29;20829;-70
2021/10/24 15:08:41;;;;;;;3.25;2.97;;;11.90;99.90;;;;;;4915093;29;20249;-70
2021/10/24 15:11:10;;;;;;;2.13;1.92;;;11.80;99.90;;;;;;4929242;29;20214;-70
2021/10/24 15:13:38;;;;;;;2.25;2.15;;;11.80;99.90;;;;;;4921112;29;20285;-69
2021/10/24 15:16:09;;;;;;;2.25;2.15;;;11.80;99.90;;;;;;4931134;29;20206;-72
2021/10/24 15:19:01;;;;;;;2.30;2.00;;;11.70;99.90;;;;;;4920188;29;20309;-70
2021/10/24 15:21:28;;;;;;;2.10;1.80;;;11.70;99.90;;;;;;4933114;28;20214;-70
2021/10/24 15:23:55;;;;;;;2.47;2.30;;;11.60;99.90;;;;;;4933133;29;20261;-70
2021/10/24 15:26:23;;;;;;;2.42;2.03;;;11.50;99.90;;;;;;4931794;29;20723;-69
2021/10/24 15:28:52;;;;;;;2.08;2.00;;;11.40;99.90;;;;;;4928714;29;20691;-70
2021/10/24 15:31:20;;;;;;;1.80;1.75;;;11.40;99.90;;;;;;4930749;29;20212;-70
2021/10/24 15:33:46;;;;;;;1.80;1.58;;;11.30;99.90;;;;;;4932034;29;20302;-70
2021/10/24 15:36:14;;;;;;;2.78;2.10;;;11.30;99.90;;;;;;4933718;29;20205;-70
2021/10/24 15:38:42;;;;;;;1.95;1.85;;;11.20;99.90;;;;;;4939677;29;20572;-70
2021/10/24 15:41:09;;;;;;;2.50;2.25;;;11.10;99.90;;;;;;4923619;29;20209;-70
2021/10/24 15:43:36;;;;;;;2.17;1.98;;;11.00;99.90;;;;;;4926296;29;20668;-71
2021/10/24 15:46:04;;;;;;;2.05;1.85;;;11.00;99.90;;;;;;4940818;29;20340;-74
2021/10/24 15:48:31;;;;;;;2.28;2.17;;;10.90;99.90;;;;;;4915735;29;20245;-69
2021/10/24 15:50:59;;;;;;;2.83;2.63;;;10.80;99.90;;;;;;4932303;29;20201;-72
2021/10/24 15:53:25;;;;;;;3.05;2.80;;;10.70;99.90;;;;;;4914007;29;20210;-70
2021/10/24 15:55:53;;;;;;;2.53;2.42;;;10.60;99.90;;;;;;4914129;29;20215;-69
2021/10/24 15:58:21;;;;;;;3.35;2.58;;;10.60;99.90;;;;;;4914193;29;20217;-69
2021/10/24 16:00:48;;;;;;;10.43;3.50;;;10.60;99.90;;;;;;4913524;29;20206;-70
2021/10/24 16:03:15;;;;;;;7.78;3.58;;;10.50;99.90;;;;;;4930062;29;20291;-70
2021/10/24 16:05:42;;;;;;;2.80;2.60;;;10.40;99.90;;;;;;4923917;29;20227;-70
2021/10/24 16:08:09;;;;;;;5.85;3.20;;;10.30;99.90;;;;;;4916782;29;20210;-71
2021/10/24 16:10:36;;;;;;;2.35;2.25;;;10.20;99.90;;;;;;4930610;29;20713;-70
2021/10/24 16:13:05;;;;;;;3.42;2.72;;;10.10;99.90;;;;;;4928296;29;20213;-70
2021/10/24 16:15:33;;;;;;;2.65;2.45;;;10.00;99.90;;;;;;4923209;29;20327;-70
2021/10/24 16:17:59;;;;;;;3.03;2.40;;;9.90;99.90;;;;;;4927011;29;20313;-71
2021/10/24 16:20:26;;;;;;;2.33;2.22;;;9.80;99.90;;;;;;4926884;29;20228;-70
2021/10/24 16:22:53;;;;;;;3.30;3.05;;;9.80;99.90;;;;;;4933045;29;20210;-72
2021/10/24 16:25:20;;;;;;;2.88;2.78;;;9.70;99.90;;;;;;4929916;29;20305;-70
2021/10/24 16:27:47;;;;;;;3.10;2.90;;;9.60;99.90;;;;;;4937697;23;20242;-70
2021/10/24 16:30:15;;;;;;;3.50;2.60;;;9.60;99.90;;;;;;4940213;29;20666;-71
2021/10/24 16:32:42;;;;;;;4.85;3.50;;;9.50;99.90;;;;;;4932859;29;20206;-70
2021/10/24 16:35:10;;;;;;;5.05;3.13;;;9.50;99.90;;;;;;4933923;29;20365;-70
2021/10/24 16:37:38;;;;;;;4.75;2.88;;;9.40;99.90;;;;;;4930735;29;20261;-70
2021/10/24 16:40:06;;;;;;;3.72;3.53;;;9.30;99.90;;;;;;4917605;29;20203;-69
2021/10/24 16:42:34;;;;;;;3.95;3.63;;;9.20;99.90;;;;;;4919209;29;20206;-69
2021/10/24 16:45:00;;;;;;;4.30;3.90;;;9.10;99.90;;;;;;4924752;29;20250;-70
2021/10/24 16:47:28;;;;;;;4.20;3.83;;;9.00;99.90;;;;;;4920764;29;20256;-69
2021/10/24 16:49:55;;;;;;;5.35;4.57;;;8.90;99.90;;;;;;4914946;29;20260;-70
2021/10/24 16:52:22;;;;;;;6.72;4.15;;;8.90;99.90;;;;;;4924877;29;20567;-71
2021/10/24 16:54:48;;;;;;;3.95;3.65;;;8.80;99.90;;;;;;4935615;29;20213;-71
2021/10/24 16:57:15;;;;;;;3.88;3.40;;;8.80;99.90;;;;;;4920496;29;20289;-71
2021/10/24 16:59:42;;;;;;;4.05;3.78;;;8.70;99.90;;;;;;4917694;29;20214;-71
2021/10/24 17:02:09;;;;;;;6.15;4.47;;;8.70;99.90;;;;;;4925789;29;20621;-70